createdAt,value
2022-10-01T00:02:23.697Z,101174.53
2022-10-01T00:05:25.968Z,101148.53
2022-10-01T00:08:29.513Z,101175.88
2022-10-01T00:11:32.298Z,101179.41
2022-10-01T00:14:34.813Z,101184.00
2022-10-01T00:17:37.286Z,101180.22
2022-10-01T00:20:42.327Z,101182.28
2022-10-01T00:23:46.224Z,101175.56
2022-10-01T00:26:48.422Z,101179.53
2022-10-01T00:29:50.436Z,101186.72
2022-10-01T00:32:56.127Z,101181.84
2022-10-01T00:35:58.207Z,101182.44
2022-10-01T00:39:01.154Z,101175.91
2022-10-01T00:42:24.303Z,101187.03
2022-10-01T00:45:26.345Z,101174.22
2022-10-01T00:48:30.929Z,101172.16
2022-10-01T00:51:37.324Z,101177.41
2022-10-01T00:54:51.311Z,101175.91
2022-10-01T00:57:55.179Z,101181.22
2022-10-01T01:00:57.762Z,101164.19
2022-10-01T01:03:59.986Z,101172.63
2022-10-01T01:07:04.439Z,101162.69
2022-10-01T01:10:07.723Z,101169.91
2022-10-01T01:13:21.612Z,101178.00
2022-10-01T01:16:34.542Z,101166.47
2022-10-01T01:20:08.892Z,101179.00
2022-10-01T01:23:16.907Z,101172.56
2022-10-01T01:26:48.433Z,101181.72
2022-10-01T01:30:09.799Z,101186.72
2022-10-01T01:33:17.814Z,101174.00
2022-10-01T01:36:26.667Z,101194.47
2022-10-01T01:39:32.131Z,101189.25
2022-10-01T01:42:38.012Z,101178.38
2022-10-01T01:45:41.454Z,101183.59
2022-10-01T01:48:47.722Z,101173.31
2022-10-01T01:51:56.593Z,101174.38
2022-10-01T01:54:58.829Z,101192.34
2022-10-01T01:58:01.395Z,101178.97
2022-10-01T02:01:04.140Z,101187.28
2022-10-01T02:04:33.821Z,101188.50
2022-10-01T02:07:58.719Z,101200.84
2022-10-01T02:11:10.118Z,101204.16
2022-10-01T02:14:37.661Z,101206.44
2022-10-01T02:17:58.626Z,101208.50
2022-10-01T02:21:05.562Z,101203.25
2022-10-01T02:24:26.949Z,101202.03
2022-10-01T02:27:53.328Z,101207.19
2022-10-01T02:30:59.369Z,101199.56
2022-10-01T02:34:04.613Z,101209.75
2022-10-01T02:37:09.327Z,101212.22
2022-10-01T02:40:16.322Z,101194.56
2022-10-01T02:43:23.699Z,101219.72
2022-10-01T02:46:40.255Z,101194.34
2022-10-01T02:49:42.765Z,101222.25
2022-10-01T02:52:53.509Z,101228.22
2022-10-01T02:55:57.612Z,101227.25
2022-10-01T02:58:59.687Z,101192.63
2022-10-01T03:02:02.102Z,101223.78
2022-10-01T03:05:04.753Z,101223.78
2022-10-01T03:08:07.002Z,101225.84
2022-10-01T03:11:09.491Z,101200.59
2022-10-01T03:14:11.631Z,101220.31
2022-10-01T03:17:15.052Z,101219.03
2022-10-01T03:20:17.232Z,101218.66
2022-10-01T03:23:19.340Z,101204.78
2022-10-01T03:26:21.468Z,101213.53
2022-10-01T03:29:24.493Z,101206.53
2022-10-01T03:32:26.622Z,101209.06
2022-10-01T03:35:29.915Z,101215.19
2022-10-01T03:38:32.258Z,101215.03
2022-10-01T03:41:34.711Z,101210.63
2022-10-01T03:44:37.689Z,101204.28
2022-10-01T03:47:40.111Z,101192.53
2022-10-01T03:50:42.197Z,101187.97
2022-10-01T03:53:44.331Z,101193.59
2022-10-01T03:56:46.424Z,101205.28
2022-10-01T03:59:48.479Z,101216.81
2022-10-01T04:02:50.552Z,101208.47
2022-10-01T04:05:52.705Z,101219.53
2022-10-01T04:08:54.823Z,101221.88
2022-10-01T04:11:56.783Z,101223.75
2022-10-01T04:14:58.743Z,101232.53
2022-10-01T04:18:06.377Z,101245.16
2022-10-01T04:21:08.716Z,101230.03
2022-10-01T04:24:10.799Z,101235.59
2022-10-01T04:27:12.750Z,101226.13
2022-10-01T04:30:14.856Z,101230.59
2022-10-01T04:33:17.019Z,101225.44
2022-10-01T04:36:18.992Z,101224.41
2022-10-01T04:39:21.066Z,101232.84
2022-10-01T04:42:23.260Z,101235.69
2022-10-01T04:45:25.356Z,101227.94
2022-10-01T04:48:27.394Z,101221.88
2022-10-01T04:51:29.564Z,101249.38
2022-10-01T04:54:31.768Z,101251.25
2022-10-01T04:57:35.233Z,101251.69
2022-10-01T05:00:37.287Z,101246.81
2022-10-01T05:03:40.043Z,101250.38
2022-10-01T05:06:42.050Z,101245.69
2022-10-01T05:09:44.019Z,101247.59
2022-10-01T05:12:47.338Z,101245.16
2022-10-01T05:15:52.478Z,101249.09
2022-10-01T05:18:55.310Z,101238.09
2022-10-01T05:21:57.441Z,101242.47
2022-10-01T05:25:00.482Z,101267.81
2022-10-01T05:28:06.037Z,101247.88
2022-10-01T05:31:08.066Z,101253.78
2022-10-01T05:34:10.990Z,101256.50
2022-10-01T05:37:13.039Z,101259.94
2022-10-01T05:40:15.557Z,101273.91
2022-10-01T05:43:18.825Z,101256.88
2022-10-01T05:46:20.820Z,101260.09
2022-10-01T05:49:24.557Z,101242.28
2022-10-01T05:52:26.600Z,101250.72
2022-10-01T05:55:34.779Z,101248.03
2022-10-01T05:58:37.137Z,101250.75
2022-10-01T06:01:39.276Z,101249.69
2022-10-01T06:04:41.455Z,101249.34
2022-10-01T06:07:43.697Z,101238.63
2022-10-01T06:10:46.262Z,101252.31
2022-10-01T06:13:48.510Z,101265.75
2022-10-01T06:16:54.717Z,101249.56
2022-10-01T06:19:57.524Z,101264.13
2022-10-01T06:22:59.813Z,101261.41
2022-10-01T06:26:03.537Z,101267.03
2022-10-01T06:29:05.628Z,101271.06
2022-10-01T06:32:13.597Z,101271.50
2022-10-01T06:35:15.769Z,101270.84
2022-10-01T06:38:20.348Z,101273.34
2022-10-01T06:41:22.321Z,101265.38
2022-10-01T06:44:24.335Z,101272.34
2022-10-01T06:47:26.889Z,101269.19
2022-10-01T06:50:30.118Z,101265.88
2022-10-01T06:53:33.307Z,101270.47
2022-10-01T06:56:36.622Z,101253.69
2022-10-01T06:59:38.978Z,101246.56
2022-10-01T07:02:41.604Z,101266.75
2022-10-01T07:05:44.321Z,101269.25
2022-10-01T07:08:50.441Z,101263.38
2022-10-01T07:11:57.446Z,101266.97
2022-10-01T07:15:02.672Z,101257.53
2022-10-01T07:18:05.465Z,101261.09
2022-10-01T07:21:07.898Z,101266.53
2022-10-01T07:24:10.054Z,101243.91
2022-10-01T07:27:13.234Z,101248.91
2022-10-01T07:30:15.546Z,101252.25
2022-10-01T07:33:20.947Z,101226.19
2022-10-01T07:36:23.203Z,101242.50
2022-10-01T07:39:25.496Z,101241.00
2022-10-01T07:42:27.713Z,101225.00
2022-10-01T07:45:31.028Z,101223.69
2022-10-01T07:48:33.076Z,101238.78
2022-10-01T07:51:36.970Z,101223.38
2022-10-01T07:54:39.181Z,101222.69
2022-10-01T07:57:43.264Z,101213.63
2022-10-01T08:00:45.518Z,101215.09
2022-10-01T08:03:52.344Z,101205.41
2022-10-01T08:06:57.022Z,101201.88
2022-10-01T08:09:59.529Z,101193.38
2022-10-01T08:13:07.334Z,101185.09
2022-10-01T08:16:10.110Z,101184.47
2022-10-01T08:19:13.129Z,101182.66
2022-10-01T08:22:15.419Z,101180.53
2022-10-01T08:25:17.680Z,101172.25
2022-10-01T08:28:19.957Z,101168.19
2022-10-01T08:31:22.780Z,101165.41
2022-10-01T08:34:25.029Z,101166.22
2022-10-01T08:37:28.985Z,101164.31
2022-10-01T08:40:37.146Z,101158.09
2022-10-01T08:43:41.375Z,101156.59
2022-10-01T08:46:43.784Z,101150.41
2022-10-01T08:49:55.069Z,101129.66
2022-10-01T08:53:04.726Z,101140.47
2022-10-01T08:56:27.816Z,101129.66
2022-10-01T08:59:41.215Z,101131.25
2022-10-01T09:02:45.048Z,101130.94
2022-10-01T09:06:07.022Z,101130.72
2022-10-01T09:09:47.183Z,101110.03
2022-10-01T09:13:25.053Z,101110.50
2022-10-01T09:16:41.468Z,101105.47
2022-10-01T09:20:02.132Z,101097.09
2022-10-01T09:23:25.661Z,101106.84
2022-10-01T09:26:28.368Z,101091.53
2022-10-01T09:29:41.513Z,101083.09
2022-10-01T09:32:55.832Z,101081.34
2022-10-01T09:36:11.525Z,101076.91
2022-10-01T09:39:32.621Z,101080.50
2022-10-01T09:42:35.268Z,101068.81
2022-10-01T09:45:38.794Z,101063.72
2022-10-01T09:48:44.962Z,101064.22
2022-10-01T09:51:54.378Z,101047.25
2022-10-01T09:55:20.043Z,101035.84
2022-10-01T09:58:25.218Z,101042.22
2022-10-01T10:01:34.051Z,101042.59
2022-10-01T10:04:36.465Z,101042.28
2022-10-01T10:07:41.262Z,101030.34
2022-10-01T10:10:57.491Z,101037.72
2022-10-01T10:14:03.687Z,101022.84
2022-10-01T10:17:12.247Z,101031.69
2022-10-01T10:20:22.591Z,101003.63
2022-10-01T10:23:26.931Z,101027.38
2022-10-01T10:26:38.956Z,101013.41
2022-10-01T10:29:41.339Z,101007.69
2022-10-01T10:32:47.289Z,100990.75
2022-10-01T10:36:05.334Z,101006.50
2022-10-01T10:39:21.524Z,100992.41
2022-10-01T10:42:26.421Z,100986.44
2022-10-01T10:45:36.782Z,100980.97
2022-10-01T10:48:45.649Z,100985.28
2022-10-01T10:51:54.213Z,100973.59
2022-10-01T10:54:59.015Z,100985.25
2022-10-01T10:58:11.732Z,100979.38
2022-10-01T11:01:18.161Z,100969.00
2022-10-01T11:04:27.466Z,100968.38
2022-10-01T11:07:30.094Z,100974.75
2022-10-01T11:10:35.147Z,100963.75
2022-10-01T11:14:11.983Z,100949.91
2022-10-01T11:17:18.824Z,100956.84
2022-10-01T11:20:34.915Z,100943.00
2022-10-01T11:23:46.263Z,100935.84
2022-10-01T11:27:12.754Z,100938.84
2022-10-01T11:30:27.790Z,100930.25
2022-10-01T11:33:45.290Z,100924.16
2022-10-01T11:36:59.620Z,100906.38
2022-10-01T11:40:13.754Z,100903.28
2022-10-01T11:43:33.676Z,100900.19
2022-10-01T11:46:58.709Z,100904.38
2022-10-01T11:50:15.134Z,100899.13
2022-10-01T11:53:30.989Z,100902.13
2022-10-01T11:56:57.627Z,100883.25
2022-10-01T12:00:08.249Z,100899.59
2022-10-01T12:03:21.793Z,100906.91
2022-10-01T12:06:41.187Z,100904.38
2022-10-01T12:09:43.378Z,100906.56
2022-10-01T12:12:52.605Z,100912.25
2022-10-01T12:16:18.811Z,100894.41
2022-10-01T12:19:49.135Z,100879.81
2022-10-01T12:23:01.139Z,100882.81
2022-10-01T12:26:35.482Z,100883.06
2022-10-01T12:29:40.892Z,100869.34
2022-10-01T12:33:31.434Z,100863.00
2022-10-01T12:36:38.790Z,100872.56
2022-10-01T12:40:02.615Z,100872.31
2022-10-01T12:43:39.202Z,100851.22
2022-10-01T12:47:15.544Z,100855.50
2022-10-01T12:50:23.190Z,100847.53
2022-10-01T12:53:43.191Z,100832.19
2022-10-01T12:56:53.960Z,100846.38
2022-10-01T13:00:10.819Z,100838.75
2022-10-01T13:03:12.975Z,100841.97
2022-10-01T13:06:34.003Z,100834.44
2022-10-01T13:09:45.411Z,100823.63
2022-10-01T13:13:15.327Z,100822.41
2022-10-01T13:16:23.000Z,100808.34
2022-10-01T13:19:51.264Z,100797.75
2022-10-01T13:23:02.147Z,100802.75
2022-10-01T13:26:30.276Z,100789.06
2022-10-01T13:29:59.564Z,100792.22
2022-10-01T13:33:01.998Z,100786.91
2022-10-01T13:36:07.379Z,100776.16
2022-10-01T13:39:20.750Z,100773.31
2022-10-01T13:42:26.275Z,100775.84
2022-10-01T13:45:43.228Z,100767.56
2022-10-01T13:48:48.714Z,100742.81
2022-10-01T13:51:52.688Z,100739.72
2022-10-01T13:54:56.629Z,100719.81
2022-10-01T13:58:05.793Z,100732.09
2022-10-01T14:01:22.887Z,100731.31
2022-10-01T14:04:40.452Z,100728.56
2022-10-01T14:07:45.645Z,100734.53
2022-10-01T14:11:20.628Z,100739.38
2022-10-01T14:14:58.355Z,100721.38
2022-10-01T14:18:04.644Z,100710.81
2022-10-01T14:21:28.683Z,100699.34
2022-10-01T14:24:39.730Z,100689.09
2022-10-01T14:27:54.103Z,100700.44
2022-10-01T14:31:04.917Z,100681.88
2022-10-01T14:34:42.889Z,100683.41
2022-10-01T14:37:45.832Z,100672.00
2022-10-01T14:40:50.278Z,100671.63
2022-10-01T14:43:52.236Z,100665.16
2022-10-01T14:46:57.392Z,100660.06
2022-10-01T14:50:17.697Z,100654.66
2022-10-01T14:53:23.100Z,100656.13
2022-10-01T14:56:26.254Z,100654.91
2022-10-01T14:59:39.770Z,100658.31
2022-10-01T15:02:50.234Z,100649.56
2022-10-01T15:06:03.812Z,100646.16
2022-10-01T15:09:15.090Z,100641.06
2022-10-01T15:12:20.467Z,100632.44
2022-10-01T15:15:29.714Z,100647.59
2022-10-01T15:18:32.269Z,100647.88
2022-10-01T15:21:45.654Z,100637.03
2022-10-01T15:24:49.469Z,100640.44
2022-10-01T15:27:54.165Z,100609.28
2022-10-01T15:30:56.831Z,100634.78
2022-10-01T15:34:02.832Z,100618.97
2022-10-01T15:37:05.219Z,100624.13
2022-10-01T15:40:37.499Z,100607.66
2022-10-01T15:43:41.638Z,100608.88
2022-10-01T15:46:43.684Z,100612.81
2022-10-01T15:50:10.139Z,100606.16
2022-10-01T15:53:20.339Z,100604.38
2022-10-01T15:56:23.973Z,100606.19
2022-10-01T15:59:26.095Z,100600.22
2022-10-01T16:02:31.541Z,100587.00
2022-10-01T16:05:44.957Z,100575.97
2022-10-01T16:08:55.432Z,100572.28
2022-10-01T16:12:05.316Z,100570.25
2022-10-01T16:15:27.650Z,100570.16
2022-10-01T16:18:32.795Z,100561.59
2022-10-01T16:21:40.526Z,100555.97
2022-10-01T16:24:55.048Z,100562.97
2022-10-01T16:28:04.583Z,100555.50
2022-10-01T16:31:06.605Z,100565.81
2022-10-01T16:34:13.222Z,100542.75
2022-10-01T16:37:17.030Z,100540.75
2022-10-01T16:40:21.775Z,100533.22
2022-10-01T16:43:24.470Z,100532.03
2022-10-01T16:46:26.467Z,100515.75
2022-10-01T16:49:28.323Z,100503.25
2022-10-01T16:52:30.256Z,100504.94
2022-10-01T16:55:36.659Z,100499.13
2022-10-01T16:58:39.059Z,100489.72
2022-10-01T17:01:41.087Z,100488.31
2022-10-01T17:04:43.093Z,100489.59
2022-10-01T17:07:45.428Z,100496.97
2022-10-01T17:10:58.657Z,100479.97
2022-10-01T17:14:04.047Z,100475.47
2022-10-01T17:17:06.059Z,100483.16
2022-10-01T17:20:08.313Z,100480.06
2022-10-01T17:23:11.625Z,100476.97
2022-10-01T17:26:13.538Z,100469.28
2022-10-01T17:29:15.780Z,100466.19
2022-10-01T17:32:19.094Z,100457.63
2022-10-01T17:35:21.162Z,100442.13
2022-10-01T17:38:23.604Z,100436.88
2022-10-01T17:41:25.576Z,100430.22
2022-10-01T17:44:27.609Z,100431.66
2022-10-01T17:47:29.676Z,100440.13
2022-10-01T17:50:31.836Z,100441.97
2022-10-01T17:53:41.357Z,100438.69
2022-10-01T17:56:44.705Z,100432.25
2022-10-01T17:59:46.686Z,100430.44
2022-10-01T18:02:48.874Z,100424.41
2022-10-01T18:05:51.315Z,100411.44
2022-10-01T18:08:56.216Z,100406.66
2022-10-01T18:11:58.532Z,100397.19
2022-10-01T18:15:01.581Z,100393.84
2022-10-01T18:21:25.689Z,100385.78
2022-10-01T18:24:28.931Z,100379.25
2022-10-01T18:27:31.274Z,100369.97
2022-10-01T18:30:33.504Z,100368.09
2022-10-01T18:33:37.169Z,100368.34
2022-10-01T18:37:04.034Z,100358.69
2022-10-01T18:40:10.783Z,100352.88
2022-10-01T18:43:24.510Z,100346.34
2022-10-01T18:47:03.678Z,100340.66
2022-10-01T18:50:43.590Z,100338.16
2022-10-01T18:53:52.524Z,100330.41
2022-10-01T18:56:55.375Z,100314.59
2022-10-01T19:00:17.213Z,100322.00
2022-10-01T19:03:49.427Z,100315.81
2022-10-01T19:07:25.528Z,100317.59
2022-10-01T19:10:43.152Z,100300.72
2022-10-01T19:14:26.729Z,100301.53
2022-10-01T19:17:56.242Z,100292.78
2022-10-01T19:21:30.496Z,100290.50
2022-10-01T19:24:43.773Z,100265.47
2022-10-01T19:28:12.338Z,100268.94
2022-10-01T19:31:48.261Z,100252.94
2022-10-01T19:35:20.772Z,100237.97
2022-10-01T19:38:30.146Z,100236.06
2022-10-01T19:42:05.663Z,100237.13
2022-10-01T19:45:24.966Z,100233.22
2022-10-01T19:48:26.910Z,100231.78
2022-10-01T19:51:34.099Z,100204.84
2022-10-01T19:54:43.811Z,100213.41
2022-10-01T19:57:47.354Z,100216.59
2022-10-01T20:00:57.247Z,100193.69
2022-10-01T20:04:05.912Z,100206.34
2022-10-01T20:07:18.688Z,100209.56
2022-10-01T20:10:38.820Z,100193.75
2022-10-01T20:14:04.675Z,100206.22
2022-10-01T20:17:30.156Z,100192.59
2022-10-01T20:20:52.381Z,100182.63
2022-10-01T20:24:08.413Z,100176.50
2022-10-01T20:27:45.799Z,100158.91
2022-10-01T20:30:58.296Z,100154.91
2022-10-01T20:34:19.928Z,100152.78
2022-10-01T20:37:24.831Z,100155.28
2022-10-01T20:40:34.409Z,100159.06
2022-10-01T20:43:36.442Z,100147.34
2022-10-01T20:46:48.399Z,100145.66
2022-10-01T20:50:19.668Z,100150.28
2022-10-01T20:53:40.852Z,100148.16
2022-10-01T20:57:15.138Z,100133.25
2022-10-01T21:00:23.778Z,100122.63
2022-10-01T21:03:26.402Z,100129.13
2022-10-01T21:06:42.293Z,100109.00
2022-10-01T21:09:50.500Z,100107.69
2022-10-01T21:13:19.642Z,100106.69
2022-10-01T21:16:34.867Z,100119.34
2022-10-01T21:19:42.378Z,100112.31
2022-10-01T21:23:18.616Z,100106.03
2022-10-01T21:26:47.999Z,100107.34
2022-10-01T21:30:01.334Z,100093.34
2022-10-01T21:33:14.829Z,100084.69
2022-10-01T21:36:20.298Z,100088.84
2022-10-01T21:39:30.629Z,100086.94
2022-10-01T21:42:44.478Z,100089.91
2022-10-01T21:45:57.319Z,100086.25
2022-10-01T21:49:36.639Z,100088.16
2022-10-01T21:52:41.703Z,100086.16
2022-10-01T21:56:06.792Z,100078.44
2022-10-01T21:59:48.044Z,100096.13
2022-10-01T22:03:08.381Z,100088.88
2022-10-01T22:06:11.956Z,100090.44
2022-10-01T22:09:43.120Z,100089.19
2022-10-01T22:12:48.988Z,100095.81
2022-10-01T22:15:56.220Z,100097.63
2022-10-01T22:19:05.759Z,100105.91
2022-10-01T22:22:30.061Z,100116.72
2022-10-01T22:25:35.507Z,100123.59
2022-10-01T22:28:40.898Z,100163.59
2022-10-01T22:31:45.620Z,100170.47
2022-10-01T22:34:55.909Z,100171.53
2022-10-01T22:38:13.019Z,100176.63
2022-10-01T22:41:40.876Z,100164.41
2022-10-01T22:44:43.178Z,100163.69
2022-10-01T22:48:22.726Z,100166.19
2022-10-01T22:52:02.766Z,100141.75
2022-10-01T22:55:29.917Z,100142.00
2022-10-01T22:58:53.514Z,100135.81
2022-10-01T23:02:12.208Z,100108.97
2022-10-01T23:05:38.707Z,100122.88
2022-10-01T23:08:52.719Z,100111.00
2022-10-01T23:12:28.678Z,100099.72
2022-10-01T23:16:06.626Z,100072.94
2022-10-01T23:19:12.072Z,100064.16
2022-10-01T23:22:28.957Z,100062.50
2022-10-01T23:25:40.210Z,100052.91
2022-10-01T23:29:01.317Z,100046.84
2022-10-01T23:32:42.649Z,100042.47
2022-10-01T23:35:56.605Z,100043.28
2022-10-01T23:39:26.146Z,100029.91
2022-10-01T23:42:36.173Z,100022.66
2022-10-01T23:45:53.459Z,100046.13
2022-10-01T23:49:05.727Z,100041.88
2022-10-01T23:52:35.189Z,100056.31
2022-10-01T23:56:01.860Z,100053.25
2022-10-01T23:59:18.398Z,100034.41
